createdAt,value
2022-08-17T00:00:44.085Z,6.13
2022-08-17T00:03:15.038Z,5.80
2022-08-17T00:05:47.863Z,6.20
2022-08-17T00:08:20.145Z,6.60
2022-08-17T00:13:23.772Z,6.47
2022-08-17T00:15:57.905Z,6.90
2022-08-17T00:19:04.175Z,6.80
2022-08-17T00:21:16.465Z,6.18
2022-08-17T00:23:52.707Z,6.90
2022-08-17T00:26:44.543Z,6.32
2022-08-17T00:29:20.101Z,6.07
2022-08-17T00:31:50.509Z,6.45
2022-08-17T00:34:19.642Z,7.03
2022-08-17T00:36:48.083Z,6.78
2022-08-17T00:39:16.606Z,6.78
2022-08-17T00:41:44.948Z,7.05
2022-08-17T00:44:13.232Z,6.25
2022-08-17T00:46:44.920Z,6.32
2022-08-17T00:49:19.306Z,6.80
2022-08-17T00:51:51.655Z,7.00
2022-08-17T00:56:56.159Z,6.07
2022-08-17T00:59:31.911Z,6.22
2022-08-17T01:02:01.788Z,6.10
2022-08-17T01:04:33.345Z,6.65
2022-08-17T01:07:03.473Z,6.97
2022-08-17T01:09:33.340Z,6.70
2022-08-17T01:12:01.994Z,6.70
2022-08-17T01:14:30.342Z,7.00
2022-08-17T01:17:00.154Z,6.70
2022-08-17T01:19:35.801Z,6.50
2022-08-17T01:22:17.770Z,7.40
2022-08-17T01:24:53.428Z,6.78
2022-08-17T01:27:22.192Z,6.75
2022-08-17T01:29:58.699Z,7.07
2022-08-17T01:32:28.064Z,7.03
2022-08-17T01:34:58.420Z,7.30
2022-08-17T01:37:37.211Z,8.00
2022-08-17T01:40:13.972Z,7.20
2022-08-17T01:42:47.707Z,7.32
2022-08-17T01:45:22.964Z,7.07
2022-08-17T01:47:52.465Z,7.32
2022-08-17T01:50:24.736Z,7.63
2022-08-17T01:53:03.977Z,7.75
2022-08-17T01:55:39.525Z,7.18
2022-08-17T01:58:09.746Z,7.35
2022-08-17T02:00:59.432Z,7.30
2022-08-17T02:03:28.040Z,6.88
2022-08-17T02:05:57.130Z,7.47
2022-08-17T02:08:37.352Z,7.45
2022-08-17T02:11:12.236Z,7.13
2022-08-17T02:13:41.098Z,7.50
2022-08-17T02:16:09.589Z,7.43
2022-08-17T02:18:38.110Z,8.18
2022-08-17T02:21:07.957Z,7.47
2022-08-17T02:23:43.636Z,7.05
2022-08-17T02:26:26.071Z,7.47
2022-08-17T02:28:55.712Z,7.55
2022-08-17T02:31:24.278Z,7.10
2022-08-17T02:34:05.153Z,7.68
2022-08-17T02:36:35.193Z,7.97
2022-08-17T02:39:09.621Z,6.88
2022-08-17T02:41:38.559Z,7.93
2022-08-17T02:44:07.814Z,8.23
2022-08-17T02:46:36.950Z,8.05
2022-08-17T02:49:06.109Z,7.85
2022-08-17T02:51:35.242Z,7.68
2022-08-17T02:54:40.210Z,8.00
2022-08-17T02:56:53.623Z,7.60
2022-08-17T02:59:22.407Z,8.15
2022-08-17T03:01:50.819Z,7.90
2022-08-17T03:04:19.204Z,7.70
2022-08-17T03:06:47.748Z,7.93
2022-08-17T03:09:17.798Z,7.32
2022-08-17T03:11:46.171Z,7.22
2022-08-17T03:14:15.436Z,7.30
2022-08-17T03:16:43.794Z,7.65
2022-08-17T03:19:12.562Z,7.40
2022-08-17T03:21:40.893Z,7.22
2022-08-17T03:24:09.795Z,7.32
2022-08-17T03:26:40.080Z,6.90
2022-08-17T03:29:08.667Z,7.10
2022-08-17T03:31:37.422Z,7.45
2022-08-17T03:34:06.143Z,7.43
2022-08-17T03:36:36.102Z,7.60
2022-08-17T03:39:05.131Z,7.63
2022-08-17T03:41:33.687Z,7.47
2022-08-17T03:44:03.748Z,7.25
2022-08-17T03:46:49.533Z,7.55
2022-08-17T03:49:35.108Z,7.32
2022-08-17T03:52:20.954Z,7.93
2022-08-17T03:55:06.812Z,7.55
2022-08-17T03:57:35.225Z,7.80
2022-08-17T04:00:07.921Z,7.60
2022-08-17T04:02:41.758Z,7.60
2022-08-17T04:05:10.698Z,8.23
2022-08-17T04:07:39.352Z,7.85
2022-08-17T04:10:09.170Z,8.20
2022-08-17T04:12:47.780Z,6.68
2022-08-17T04:15:18.526Z,7.53
2022-08-17T04:17:46.979Z,6.90
2022-08-17T04:20:18.896Z,7.53
2022-08-17T04:22:59.237Z,7.43
2022-08-17T04:25:29.168Z,8.05
2022-08-17T04:27:58.462Z,7.70
2022-08-17T04:30:29.491Z,6.70
2022-08-17T04:33:06.358Z,7.20
2022-08-17T04:35:39.136Z,6.60
2022-08-17T04:38:09.470Z,7.10
2022-08-17T04:40:55.546Z,6.53
2022-08-17T04:43:27.264Z,6.65
2022-08-17T04:46:00.536Z,6.65
2022-08-17T04:48:36.129Z,5.90
2022-08-17T04:51:10.383Z,6.25
2022-08-17T04:53:41.202Z,5.97
2022-08-17T04:56:16.064Z,5.90
2022-08-17T04:58:46.296Z,5.25
2022-08-17T05:01:17.000Z,5.35
2022-08-17T05:03:52.565Z,5.80
2022-08-17T05:06:21.067Z,5.50
2022-08-17T05:08:49.750Z,5.90
2022-08-17T05:11:18.790Z,5.38
2022-08-17T05:13:50.027Z,5.15
2022-08-17T05:16:21.001Z,5.63
2022-08-17T05:18:50.294Z,5.40
2022-08-17T05:21:19.801Z,5.95
2022-08-17T05:23:54.745Z,5.70
2022-08-17T05:26:27.275Z,5.43
2022-08-17T05:29:00.618Z,6.07
2022-08-17T05:31:33.117Z,6.20
2022-08-17T05:34:01.657Z,6.07
2022-08-17T05:36:42.300Z,5.25
2022-08-17T05:39:15.930Z,6.00
2022-08-17T05:41:49.150Z,5.72
2022-08-17T05:44:17.924Z,5.72
2022-08-17T05:46:52.004Z,5.82
2022-08-17T05:49:28.215Z,6.55
2022-08-17T05:52:23.980Z,6.43
2022-08-17T05:55:06.860Z,6.43
2022-08-17T05:58:01.231Z,7.03
2022-08-17T06:00:42.094Z,6.78
2022-08-17T06:03:41.100Z,6.95
2022-08-17T06:06:31.274Z,6.82
2022-08-17T06:09:27.810Z,6.78
2022-08-17T06:12:19.064Z,6.50
2022-08-17T06:15:07.341Z,7.45
2022-08-17T06:17:37.292Z,7.30
2022-08-17T06:20:13.237Z,7.75
2022-08-17T06:22:48.341Z,7.57
2022-08-17T06:25:24.559Z,7.22
2022-08-17T06:27:59.040Z,7.20
2022-08-17T06:30:35.748Z,7.53
2022-08-17T06:33:24.910Z,7.50
2022-08-17T06:36:09.266Z,7.30
2022-08-17T06:38:53.676Z,8.18
2022-08-17T06:41:31.434Z,7.78
2022-08-17T06:44:42.320Z,7.80
2022-08-17T06:47:15.590Z,7.85
2022-08-17T06:50:09.027Z,7.63
2022-08-17T06:52:48.474Z,8.07
2022-08-17T06:55:26.495Z,7.88
2022-08-17T06:58:00.000Z,7.22
2022-08-17T07:00:42.131Z,7.20
2022-08-17T07:03:20.822Z,8.13
2022-08-17T07:05:54.805Z,7.75
2022-08-17T07:08:35.088Z,7.57
2022-08-17T07:11:10.966Z,8.25
2022-08-17T07:13:51.404Z,8.02
2022-08-17T07:16:25.877Z,8.00
2022-08-17T07:18:56.740Z,7.65
2022-08-17T07:21:46.004Z,8.23
2022-08-17T07:24:33.067Z,8.05
2022-08-17T07:27:21.858Z,7.68
2022-08-17T07:29:54.790Z,7.70
2022-08-17T07:32:31.501Z,7.43
2022-08-17T07:35:17.841Z,7.97
2022-08-17T07:37:54.419Z,8.02
2022-08-17T07:40:29.850Z,8.50
2022-08-17T07:43:24.087Z,8.88
2022-08-17T07:46:32.895Z,8.38
2022-08-17T07:49:34.756Z,8.68
2022-08-17T07:52:48.394Z,8.77
2022-08-17T07:54:57.469Z,8.93
2022-08-17T07:57:35.531Z,8.98
2022-08-17T08:00:31.413Z,9.15
2022-08-17T08:03:21.872Z,8.52
2022-08-17T08:05:57.799Z,8.45
2022-08-17T08:08:32.729Z,8.98
2022-08-17T08:11:08.819Z,8.80
2022-08-17T08:13:45.141Z,9.32
2022-08-17T08:16:29.209Z,8.77
2022-08-17T08:19:01.328Z,9.48
2022-08-17T08:21:47.553Z,8.57
2022-08-17T08:24:52.362Z,9.05
2022-08-17T08:27:36.432Z,9.27
2022-08-17T08:30:11.412Z,9.13
2022-08-17T08:32:58.128Z,9.05
2022-08-17T08:35:34.220Z,9.48
2022-08-17T08:38:15.729Z,9.70
2022-08-17T08:41:08.909Z,9.53
2022-08-17T08:43:52.848Z,9.05
2022-08-17T08:46:31.952Z,10.52
2022-08-17T08:50:02.503Z,10.90
2022-08-17T08:53:13.163Z,10.48
2022-08-17T08:55:52.945Z,11.57
2022-08-17T08:58:31.664Z,11.35
2022-08-17T09:01:19.308Z,11.57
2022-08-17T09:04:25.517Z,11.70
2022-08-17T09:07:16.240Z,12.75
2022-08-17T09:10:00.385Z,11.27
2022-08-17T09:12:40.919Z,12.05
2022-08-17T09:15:19.378Z,12.25
2022-08-17T09:18:21.278Z,12.82
2022-08-17T09:20:52.976Z,12.27
2022-08-17T09:23:33.831Z,12.55
2022-08-17T09:26:10.736Z,13.13
2022-08-17T09:28:44.744Z,13.18
2022-08-17T09:31:21.413Z,12.77
2022-08-17T09:33:51.489Z,13.70
2022-08-17T09:36:29.482Z,13.30
2022-08-17T09:39:04.215Z,13.10
2022-08-17T09:41:49.214Z,12.75
2022-08-17T09:44:27.833Z,12.57
2022-08-17T09:47:06.864Z,13.45
2022-08-17T09:49:42.564Z,13.38
2022-08-17T09:52:19.961Z,14.95
2022-08-17T09:54:50.827Z,14.90
2022-08-17T09:57:38.749Z,16.00
2022-08-17T10:00:23.739Z,14.52
2022-08-17T10:03:20.555Z,15.95
2022-08-17T10:05:57.660Z,16.35
2022-08-17T10:08:37.647Z,15.13
2022-08-17T10:11:33.537Z,15.50
2022-08-17T10:14:36.535Z,15.38
2022-08-17T10:17:08.970Z,15.18
2022-08-17T10:19:44.148Z,15.48
2022-08-17T10:22:41.950Z,14.23
2022-08-17T10:25:49.092Z,15.05
2022-08-17T10:28:29.764Z,16.00
2022-08-17T10:31:33.230Z,14.63
2022-08-17T10:34:18.957Z,14.25
2022-08-17T10:36:56.396Z,13.10
2022-08-17T10:39:36.053Z,13.05
2022-08-17T10:42:36.405Z,14.73
2022-08-17T10:45:17.781Z,13.18
2022-08-17T10:48:05.843Z,14.07
2022-08-17T10:50:50.343Z,14.23
2022-08-17T10:54:01.385Z,12.73
2022-08-17T10:56:50.309Z,13.30
2022-08-17T10:59:53.207Z,12.57
2022-08-17T11:02:31.848Z,11.90
2022-08-17T11:05:45.881Z,12.30
2022-08-17T11:08:40.060Z,12.45
2022-08-17T11:11:36.084Z,12.25
2022-08-17T11:14:24.190Z,12.00
2022-08-17T11:17:25.523Z,13.32
2022-08-17T11:23:32.519Z,12.80
2022-08-17T11:26:08.555Z,13.40
2022-08-17T11:28:52.681Z,13.88
2022-08-17T11:31:39.973Z,13.93
2022-08-17T11:34:20.013Z,14.00
2022-08-17T11:37:42.796Z,14.63
2022-08-17T11:40:41.112Z,13.75
2022-08-17T11:43:47.814Z,14.57
2022-08-17T11:46:51.033Z,12.98
2022-08-17T11:50:01.466Z,13.32
2022-08-17T11:52:44.530Z,14.27
2022-08-17T11:56:04.532Z,14.93
2022-08-17T11:58:40.959Z,14.55
2022-08-17T12:01:13.842Z,15.23
2022-08-17T12:03:55.385Z,15.35
2022-08-17T12:06:42.390Z,15.30
2022-08-17T12:09:18.473Z,15.43
2022-08-17T12:12:11.965Z,15.13
2022-08-17T12:17:39.279Z,16.75
2022-08-17T12:20:16.282Z,16.85
2022-08-17T12:22:57.502Z,17.63
2022-08-17T12:25:34.742Z,17.27
2022-08-17T12:28:06.852Z,17.52
2022-08-17T12:30:38.462Z,16.13
2022-08-17T12:33:25.053Z,16.85
2022-08-17T12:36:00.157Z,17.35
2022-08-17T12:38:32.955Z,16.08
2022-08-17T12:41:25.350Z,17.08
2022-08-17T12:44:01.737Z,16.48
2022-08-17T12:46:34.787Z,16.20
2022-08-17T12:49:22.610Z,17.30
2022-08-17T12:51:53.936Z,16.75
2022-08-17T12:54:31.375Z,17.30
2022-08-17T12:57:06.117Z,17.48
2022-08-17T12:59:34.476Z,17.65
2022-08-17T13:02:03.303Z,17.45
2022-08-17T13:04:33.123Z,16.90
2022-08-17T13:07:01.430Z,17.10
2022-08-17T13:09:40.374Z,16.70
2022-08-17T13:12:09.591Z,17.80
2022-08-17T13:14:37.972Z,18.33
2022-08-17T13:17:12.665Z,17.52
2022-08-17T13:19:50.418Z,18.83
2022-08-17T13:22:23.730Z,18.80
2022-08-17T13:24:57.895Z,19.17
2022-08-17T13:27:30.631Z,18.95
2022-08-17T13:30:03.149Z,18.60
2022-08-17T13:32:44.117Z,19.30
2022-08-17T13:35:44.257Z,18.25
2022-08-17T13:38:43.969Z,19.42
2022-08-17T13:41:31.162Z,19.83
2022-08-17T13:43:59.738Z,19.75
2022-08-17T13:46:32.672Z,21.77
2022-08-17T13:49:06.604Z,22.33
2022-08-17T13:51:42.637Z,20.33
2022-08-17T13:54:26.865Z,21.10
2022-08-17T13:57:03.788Z,18.48
2022-08-17T13:59:55.268Z,18.75
2022-08-17T14:02:28.776Z,17.52
2022-08-17T14:05:00.434Z,12.68
2022-08-17T14:07:34.158Z,13.90
2022-08-17T14:10:08.745Z,16.63
2022-08-17T14:12:42.575Z,15.10
2022-08-17T14:15:12.933Z,13.63
2022-08-17T14:17:41.322Z,14.55
2022-08-17T14:20:13.047Z,13.73
2022-08-17T14:22:45.936Z,12.57
2022-08-17T14:25:17.536Z,13.02
2022-08-17T14:27:53.158Z,11.75
2022-08-17T14:30:25.713Z,11.32
2022-08-17T14:32:58.078Z,10.55
2022-08-17T14:35:29.601Z,11.77
2022-08-17T14:37:58.204Z,12.73
2022-08-17T14:40:28.027Z,11.75
2022-08-17T14:42:58.818Z,12.43
2022-08-17T14:45:32.698Z,14.07
2022-08-17T14:48:05.823Z,13.27
2022-08-17T14:50:36.023Z,12.23
2022-08-17T14:53:06.207Z,14.88
2022-08-17T14:55:35.685Z,14.50
2022-08-17T14:58:05.826Z,16.40
2022-08-17T15:00:35.068Z,14.27
2022-08-17T15:03:04.266Z,14.32
2022-08-17T15:05:36.954Z,14.98
2022-08-17T15:08:06.906Z,14.27
2022-08-17T15:10:36.628Z,14.48
2022-08-17T15:13:17.075Z,12.27
2022-08-17T15:15:45.846Z,10.80
2022-08-17T15:18:14.465Z,10.43
2022-08-17T15:20:44.721Z,9.63
2022-08-17T15:23:15.104Z,10.30
2022-08-17T15:25:44.064Z,9.15
2022-08-17T15:28:14.020Z,9.00
2022-08-17T15:30:44.760Z,9.65
2022-08-17T15:33:18.701Z,7.28
2022-08-17T15:35:52.001Z,6.97
2022-08-17T15:38:22.140Z,7.22
2022-08-17T15:40:53.040Z,7.07
2022-08-17T15:43:27.926Z,5.78
2022-08-17T15:46:01.178Z,7.20
2022-08-17T15:48:42.095Z,6.65
2022-08-17T15:51:14.668Z,7.00
2022-08-17T15:56:13.698Z,8.80
2022-08-17T15:58:46.619Z,9.82
2022-08-17T16:01:41.869Z,9.25
2022-08-17T16:04:26.722Z,9.05
2022-08-17T16:06:56.493Z,10.05
2022-08-17T16:09:24.813Z,9.13
2022-08-17T16:11:55.517Z,8.85
2022-08-17T16:14:32.418Z,7.43
2022-08-17T16:17:03.471Z,5.80
2022-08-17T16:19:32.522Z,6.28
2022-08-17T16:22:01.359Z,6.18
2022-08-17T16:24:30.161Z,5.70
2022-08-17T16:26:58.681Z,6.43
2022-08-17T16:29:29.573Z,6.47
2022-08-17T16:31:59.003Z,5.78
2022-08-17T16:34:27.616Z,5.80
2022-08-17T16:36:56.731Z,6.00
2022-08-17T16:39:27.170Z,6.38
2022-08-17T16:41:56.190Z,6.00
2022-08-17T16:44:25.956Z,6.20
2022-08-17T16:46:57.503Z,5.63
2022-08-17T16:49:37.451Z,5.90
2022-08-17T16:52:09.692Z,6.50
2022-08-17T16:54:44.101Z,6.65
2022-08-17T16:57:17.472Z,6.28
2022-08-17T16:59:50.269Z,6.35
2022-08-17T17:02:27.509Z,6.22
2022-08-17T17:05:03.919Z,7.32
2022-08-17T17:07:50.754Z,6.53
2022-08-17T17:10:27.601Z,7.10
2022-08-17T17:13:01.965Z,7.10
2022-08-17T17:15:47.695Z,7.07
2022-08-17T17:18:18.010Z,6.32
2022-08-17T17:20:55.729Z,6.85
2022-08-17T17:23:42.343Z,7.05
2022-08-17T17:26:38.111Z,6.90
2022-08-17T17:29:21.753Z,7.35
2022-08-17T17:32:04.675Z,7.13
2022-08-17T17:34:39.732Z,7.85
2022-08-17T17:37:18.277Z,7.88
2022-08-17T17:39:52.412Z,7.82
2022-08-17T17:42:28.151Z,10.40
2022-08-17T17:45:07.323Z,11.02
2022-08-17T17:47:37.416Z,11.95
2022-08-17T17:50:09.171Z,11.30
2022-08-17T17:52:50.567Z,12.13
2022-08-17T17:55:55.691Z,11.02
2022-08-17T17:58:40.517Z,11.68
2022-08-17T18:01:26.383Z,12.10
2022-08-17T18:04:17.631Z,13.13
2022-08-17T18:07:19.243Z,13.15
2022-08-17T18:10:19.573Z,12.32
2022-08-17T18:13:10.236Z,12.80
2022-08-17T18:15:45.289Z,12.90
2022-08-17T18:18:38.565Z,12.88
2022-08-17T18:21:16.328Z,12.52
2022-08-17T18:23:56.493Z,13.10
2022-08-17T18:26:50.593Z,12.35
2022-08-17T18:29:35.831Z,14.15
2022-08-17T18:32:34.133Z,14.38
2022-08-17T18:35:28.581Z,13.65
2022-08-17T18:38:20.382Z,13.95
2022-08-17T18:41:01.497Z,13.15
2022-08-17T18:43:44.090Z,14.25
2022-08-17T18:46:33.238Z,13.00
2022-08-17T18:49:06.679Z,13.50
2022-08-17T18:51:42.073Z,13.13
2022-08-17T18:54:21.155Z,13.32
2022-08-17T18:56:58.881Z,13.48
2022-08-17T18:59:41.908Z,13.10
2022-08-17T19:02:45.947Z,13.00
2022-08-17T19:05:32.004Z,13.93
2022-08-17T19:08:22.730Z,12.68
2022-08-17T19:10:55.054Z,13.60
2022-08-17T19:16:13.847Z,13.57
2022-08-17T19:18:52.366Z,13.30
2022-08-17T19:21:26.717Z,13.75
2022-08-17T19:24:01.582Z,13.32
2022-08-17T19:26:53.853Z,12.65
2022-08-17T19:29:32.152Z,11.90
2022-08-17T19:32:03.286Z,11.55
2022-08-17T19:34:35.618Z,12.52
2022-08-17T19:39:50.840Z,13.63
2022-08-17T19:42:32.392Z,14.35
2022-08-17T19:45:13.936Z,14.32
2022-08-17T19:47:56.482Z,13.93
2022-08-17T19:50:41.626Z,13.05
2022-08-17T19:53:36.859Z,12.75
2022-08-17T19:56:24.134Z,12.68
2022-08-17T19:59:02.454Z,12.20
2022-08-17T20:01:41.449Z,12.57
2022-08-17T20:04:19.104Z,12.82
2022-08-17T20:06:50.412Z,12.93
2022-08-17T20:09:33.863Z,13.43
2022-08-17T20:12:08.755Z,13.57
2022-08-17T20:14:53.545Z,13.73
2022-08-17T20:17:32.276Z,13.40
2022-08-17T20:20:27.258Z,14.27
2022-08-17T20:23:06.809Z,13.60
2022-08-17T20:25:43.806Z,13.98
2022-08-17T20:28:23.812Z,15.45
2022-08-17T20:30:53.161Z,15.00
2022-08-17T20:33:29.785Z,14.00
2022-08-17T20:36:17.626Z,14.25
2022-08-17T20:38:50.301Z,14.50
2022-08-17T20:41:22.519Z,14.98
2022-08-17T20:46:56.429Z,14.25
2022-08-17T20:49:41.498Z,13.32
2022-08-17T20:52:15.478Z,14.20
2022-08-17T20:54:51.514Z,14.85
2022-08-17T20:57:48.680Z,17.73
2022-08-17T21:00:45.678Z,18.90
2022-08-17T21:03:52.272Z,18.65
2022-08-17T21:06:26.621Z,20.05
2022-08-17T21:08:59.899Z,19.23
2022-08-17T21:12:04.527Z,19.77
2022-08-17T21:14:58.726Z,20.27
2022-08-17T21:17:48.192Z,20.48
2022-08-17T21:20:42.438Z,24.50
2022-08-17T21:23:30.575Z,21.67
2022-08-17T21:26:28.086Z,19.30
2022-08-17T21:29:31.397Z,18.33
2022-08-17T21:32:30.540Z,18.73
2022-08-17T21:35:30.067Z,19.50
2022-08-17T21:38:05.124Z,18.65
2022-08-17T21:40:36.320Z,20.30
2022-08-17T21:43:23.518Z,19.20
2022-08-17T21:46:04.305Z,19.35
2022-08-17T21:48:41.988Z,21.63
2022-08-17T21:51:17.664Z,19.73
2022-08-17T21:53:50.162Z,19.58
2022-08-17T21:59:02.396Z,19.70
2022-08-17T22:01:35.101Z,19.48
2022-08-17T22:04:16.972Z,18.55
2022-08-17T22:06:56.879Z,19.55
2022-08-17T22:09:28.961Z,18.67
2022-08-17T22:12:08.432Z,18.40
2022-08-17T22:14:52.486Z,17.35
2022-08-17T22:17:25.527Z,17.55
2022-08-17T22:19:57.429Z,17.15
2022-08-17T22:22:33.040Z,15.30
2022-08-17T22:25:06.179Z,16.95
2022-08-17T22:27:54.316Z,17.63
2022-08-17T22:30:37.316Z,17.75
2022-08-17T22:33:46.868Z,19.02
2022-08-17T22:36:29.691Z,17.40
2022-08-17T22:39:01.040Z,18.08
2022-08-17T22:41:42.428Z,19.38
2022-08-17T22:44:29.617Z,21.00
2022-08-17T22:47:02.973Z,20.50
2022-08-17T22:49:38.507Z,19.80
2022-08-17T22:52:34.055Z,21.40
2022-08-17T22:55:39.519Z,22.10
2022-08-17T22:58:29.725Z,21.00
2022-08-17T23:01:28.305Z,22.33
2022-08-17T23:03:59.325Z,22.33
2022-08-17T23:06:27.903Z,22.63
2022-08-17T23:08:57.985Z,21.88
2022-08-17T23:11:36.645Z,21.00
2022-08-17T23:14:19.067Z,21.30
2022-08-17T23:16:50.295Z,20.50
2022-08-17T23:19:22.717Z,19.50
2022-08-17T23:21:55.346Z,20.50
2022-08-17T23:24:26.911Z,21.95
2022-08-17T23:26:58.057Z,22.27
2022-08-17T23:29:29.214Z,20.73
2022-08-17T23:32:01.297Z,22.27
2022-08-17T23:34:30.420Z,24.08
2022-08-17T23:37:02.267Z,21.60
2022-08-17T23:39:31.361Z,20.58
2022-08-17T23:42:01.881Z,20.58
2022-08-17T23:44:31.009Z,22.80
2022-08-17T23:47:02.420Z,21.98
2022-08-17T23:49:32.212Z,22.95
2022-08-17T23:52:02.495Z,23.17
2022-08-17T23:54:34.385Z,20.90
2022-08-17T23:57:04.803Z,21.23
2022-08-17T23:59:33.975Z,21.38
